Time;durP1;ratioP1;P1;durP2;ratioP2;P2;SDS_P1;SDS_P2;PMS_P1;PMS_P2;Temp;Humidity;BMP_temperature;BMP_pressure;BME280_temperature;BME280_humidity;BME280_pressure;Samples;Min_cycle;Max_cycle;Signal;HPM_P1;HPM_P2
2023/08/03 00:02:01;;;;;;;0.20;0.20;;;;;;;;;;10281854;28;21144;-73
2023/08/03 00:07:02;;;;;;;0.10;0.10;;;;;;;;;;10274383;28;20218;-75
2023/08/03 00:12:03;;;;;;;2.30;0.28;;;;;;;;;;10264245;28;20322;-73
2023/08/03 00:17:04;;;;;;;0.20;0.20;;;;;;;;;;10270144;28;20221;-73
2023/08/03 00:22:06;;;;;;;0.30;0.30;;;;;;;;;;10272049;28;20221;-71
2023/08/03 00:27:07;;;;;;;0.45;0.30;;;;;;;;;;10274006;28;20218;-75
2023/08/03 00:32:08;;;;;;;0.20;0.20;;;;;;;;;;10263788;28;20223;-74
2023/08/03 00:37:11;;;;;;;1.67;0.20;;;;;;;;;;10257033;28;20219;-73
2023/08/03 00:42:12;;;;;;;0.35;0.35;;;;;;;;;;10275189;28;20310;-71
2023/08/03 00:47:13;;;;;;;0.47;0.20;;;;;;;;;;10273475;28;21197;-72
2023/08/03 00:52:15;;;;;;;1.55;0.10;;;;;;;;;;10273177;28;20316;-73
2023/08/03 00:57:16;;;;;;;0.20;0.20;;;;;;;;;;10259232;28;20233;-71
2023/08/03 01:02:17;;;;;;;0.30;0.30;;;;;;;;;;10265144;28;20223;-76
2023/08/03 01:07:21;;;;;;;0.22;0.22;;;;;;;;;;10268806;28;23367;-75
2023/08/03 01:12:22;;;;;;;0.10;0.10;;;;;;;;;;10263575;28;20243;-74
2023/08/03 01:17:25;;;;;;;3.95;0.20;;;;;;;;;;10270576;28;21874;-73
2023/08/03 01:22:26;;;;;;;0.35;0.35;;;;;;;;;;10273380;28;20226;-73
2023/08/03 01:27:28;;;;;;;3.78;0.30;;;;;;;;;;10273140;28;20229;-75
2023/08/03 01:32:30;;;;;;;0.30;0.30;;;;;;;;;;10267365;28;20346;-74
2023/08/03 01:37:33;;;;;;;1.77;0.60;;;;;;;;;;10282854;28;20872;-74
2023/08/03 01:42:34;;;;;;;0.30;0.30;;;;;;;;;;10277159;28;20222;-74
2023/08/03 01:47:36;;;;;;;0.20;0.20;;;;;;;;;;10284737;28;21720;-76
2023/08/03 01:52:37;;;;;;;0.20;0.20;;;;;;;;;;10280196;28;20230;-73
2023/08/03 01:57:38;;;;;;;0.20;0.20;;;;;;;;;;10277482;28;20214;-71
2023/08/03 02:02:39;;;;;;;0.43;0.30;;;;;;;;;;10283608;28;20234;-71
2023/08/03 02:07:42;;;;;;;0.20;0.20;;;;;;;;;;10274649;28;20223;-73
2023/08/03 02:12:43;;;;;;;1.55;0.30;;;;;;;;;;10258211;28;20238;-73
2023/08/03 02:17:44;;;;;;;0.28;0.13;;;;;;;;;;10268501;28;21753;-73
2023/08/03 02:22:45;;;;;;;0.57;0.22;;;;;;;;;;10259327;28;20253;-72
2023/08/03 02:27:46;;;;;;;0.50;0.20;;;;;;;;;;10258870;28;20229;-71
2023/08/03 02:32:48;;;;;;;0.10;0.10;;;;;;;;;;10273411;28;20334;-71
2023/08/03 02:37:49;;;;;;;0.20;0.20;;;;;;;;;;10266311;28;20870;-71
2023/08/03 02:42:54;;;;;;;1.00;0.57;;;;;;;;;;10264374;28;20739;-74
2023/08/03 02:47:56;;;;;;;0.82;0.40;;;;;;;;;;10250514;28;20227;-72
2023/08/03 02:52:58;;;;;;;1.95;0.22;;;;;;;;;;10257945;28;21081;-73
2023/08/03 02:58:00;;;;;;;0.35;0.20;;;;;;;;;;10257862;28;20253;-74
2023/08/03 03:03:01;;;;;;;1.75;0.50;;;;;;;;;;10249938;28;20216;-74
2023/08/03 03:08:10;;;;;;;3.60;0.20;;;;;;;;;;10264613;28;21224;-74
2023/08/03 03:13:13;;;;;;;6.13;0.35;;;;;;;;;;10266764;28;20615;-74
2023/08/03 03:18:17;;;;;;;2.15;0.90;;;;;;;;;;10252928;28;20250;-72
2023/08/03 03:23:18;;;;;;;3.08;0.30;;;;;;;;;;10272154;28;21210;-73
2023/08/03 03:28:19;;;;;;;0.20;0.20;;;;;;;;;;10290750;28;20222;-72
2023/08/03 03:33:22;;;;;;;0.50;0.20;;;;;;;;;;10266490;28;20219;-73
2023/08/03 03:38:29;;;;;;;0.52;0.40;;;;;;;;;;10280752;28;20214;-75
2023/08/03 03:43:30;;;;;;;0.20;0.20;;;;;;;;;;10267035;28;20231;-75
2023/08/03 03:48:31;;;;;;;0.90;0.30;;;;;;;;;;10280776;28;20218;-74
2023/08/03 03:53:36;;;;;;;4.75;0.28;;;;;;;;;;10276830;28;20218;-74
2023/08/03 03:58:44;;;;;;;4.28;0.30;;;;;;;;;;10269657;28;20322;-74
2023/08/03 04:03:45;;;;;;;0.30;0.30;;;;;;;;;;10276223;28;20310;-73
2023/08/03 04:08:46;;;;;;;1.70;0.35;;;;;;;;;;10266929;28;20237;-74
2023/08/03 04:13:48;;;;;;;0.47;0.30;;;;;;;;;;10264859;28;20239;-72
2023/08/03 04:18:49;;;;;;;0.20;0.20;;;;;;;;;;10263833;28;20223;-72
2023/08/03 04:23:50;;;;;;;0.75;0.35;;;;;;;;;;10265908;28;20365;-73
2023/08/03 04:28:52;;;;;;;0.15;0.15;;;;;;;;;;10265131;28;21544;-72
2023/08/03 04:33:53;;;;;;;1.27;0.30;;;;;;;;;;10265579;28;20207;-71
2023/08/03 04:38:56;;;;;;;0.15;0.15;;;;;;;;;;10277283;28;20258;-73
2023/08/03 04:44:01;;;;;;;0.20;0.20;;;;;;;;;;10250373;28;20215;-73
2023/08/03 04:49:10;;;;;;;0.22;0.22;;;;;;;;;;10271573;28;20222;-71
2023/08/03 04:54:14;;;;;;;1.77;0.20;;;;;;;;;;10247196;28;20211;-75
2023/08/03 04:59:15;;;;;;;0.20;0.20;;;;;;;;;;10258861;28;20280;-73
2023/08/03 05:04:16;;;;;;;0.20;0.20;;;;;;;;;;10270674;28;20226;-74
2023/08/03 05:09:18;;;;;;;0.77;0.30;;;;;;;;;;10246285;28;20248;-75
2023/08/03 05:14:19;;;;;;;1.60;0.20;;;;;;;;;;10209913;28;20975;-71
2023/08/03 05:19:21;;;;;;;0.20;0.20;;;;;;;;;;10200781;28;20933;-72
2023/08/03 05:24:22;;;;;;;0.13;0.13;;;;;;;;;;10191590;28;21388;-76
2023/08/03 05:29:23;;;;;;;0.40;0.40;;;;;;;;;;10199737;28;20660;-76
2023/08/03 05:34:24;;;;;;;2.17;0.20;;;;;;;;;;10190957;28;20788;-75
2023/08/03 05:39:28;;;;;;;3.95;0.20;;;;;;;;;;10201903;28;20275;-75
2023/08/03 05:44:29;;;;;;;0.47;0.15;;;;;;;;;;10225332;28;20311;-76
2023/08/03 05:49:30;;;;;;;3.03;0.22;;;;;;;;;;10207711;28;20252;-74
2023/08/03 05:54:31;;;;;;;0.10;0.10;;;;;;;;;;10211728;28;20216;-77
2023/08/03 05:59:36;;;;;;;0.52;0.25;;;;;;;;;;10201084;28;21692;-75
2023/08/03 06:04:37;;;;;;;0.20;0.17;;;;;;;;;;10195544;28;20327;-75
2023/08/03 06:09:38;;;;;;;0.10;0.10;;;;;;;;;;10191917;28;20227;-74
2023/08/03 06:14:40;;;;;;;0.20;0.20;;;;;;;;;;10200973;28;20345;-72
2023/08/03 06:19:41;;;;;;;0.20;0.20;;;;;;;;;;10173787;28;21258;-75
2023/08/03 06:24:42;;;;;;;0.20;0.20;;;;;;;;;;10193865;28;20708;-76
2023/08/03 06:29:43;;;;;;;0.90;0.35;;;;;;;;;;10194914;28;20220;-74
2023/08/03 06:34:45;;;;;;;0.63;0.10;;;;;;;;;;10195524;28;20209;-76
2023/08/03 06:39:49;;;;;;;0.20;0.20;;;;;;;;;;10191026;28;20227;-78
2023/08/03 06:44:50;;;;;;;1.08;0.20;;;;;;;;;;10195803;28;20221;-76
2023/08/03 06:49:51;;;;;;;0.88;0.20;;;;;;;;;;10197148;28;20227;-72
2023/08/03 06:54:52;;;;;;;0.77;0.30;;;;;;;;;;10198328;28;20220;-76
2023/08/03 06:59:56;;;;;;;0.10;0.10;;;;;;;;;;10212133;28;20318;-76
2023/08/03 07:04:57;;;;;;;0.45;0.00;;;;;;;;;;10203702;28;20323;-73
2023/08/03 07:09:59;;;;;;;0.10;0.10;;;;;;;;;;10216461;28;20281;-76
2023/08/03 07:15:00;;;;;;;0.10;0.10;;;;;;;;;;10211903;28;20536;-78
2023/08/03 07:20:01;;;;;;;0.10;0.10;;;;;;;;;;10193640;28;20781;-76
2023/08/03 07:25:03;;;;;;;0.13;0.10;;;;;;;;;;10210441;28;21129;-75
2023/08/03 07:30:05;;;;;;;0.75;0.10;;;;;;;;;;10208984;28;20725;-75
2023/08/03 07:35:07;;;;;;;0.20;0.10;;;;;;;;;;10208806;28;20278;-78
2023/08/03 07:40:08;;;;;;;0.10;0.10;;;;;;;;;;10212773;28;20944;-75
2023/08/03 07:45:09;;;;;;;0.00;0.00;;;;;;;;;;10218692;28;22636;-74
2023/08/03 07:50:10;;;;;;;1.77;0.10;;;;;;;;;;10220829;28;22165;-77
2023/08/03 07:55:12;;;;;;;0.28;0.10;;;;;;;;;;10215067;28;20270;-76
2023/08/03 08:00:13;;;;;;;0.00;0.00;;;;;;;;;;10214589;28;20204;-74
2023/08/03 08:05:14;;;;;;;0.10;0.10;;;;;;;;;;10217568;28;20526;-76
2023/08/03 08:10:15;;;;;;;0.30;0.10;;;;;;;;;;10207327;28;20211;-75
2023/08/03 08:15:16;;;;;;;1.65;0.08;;;;;;;;;;10209030;28;20228;-74
2023/08/03 08:20:17;;;;;;;0.00;0.00;;;;;;;;;;10200432;28;20204;-73
2023/08/03 08:25:20;;;;;;;0.57;0.30;;;;;;;;;;10198084;28;20196;-76
2023/08/03 08:30:21;;;;;;;0.00;0.00;;;;;;;;;;10203174;28;20227;-73
2023/08/03 08:35:22;;;;;;;0.00;0.00;;;;;;;;;;10210011;28;20829;-76
2023/08/03 08:40:23;;;;;;;0.10;0.10;;;;;;;;;;10202883;28;20539;-73
2023/08/03 08:45:24;;;;;;;0.63;0.00;;;;;;;;;;10194576;28;20224;-75
2023/08/03 08:50:26;;;;;;;1.15;0.15;;;;;;;;;;10207619;28;20681;-75
2023/08/03 08:55:28;;;;;;;0.10;0.10;;;;;;;;;;10213511;28;21470;-73
2023/08/03 09:00:29;;;;;;;0.10;0.10;;;;;;;;;;10213906;28;20221;-74
2023/08/03 09:05:30;;;;;;;0.52;0.00;;;;;;;;;;10201458;28;20212;-73
2023/08/03 09:10:32;;;;;;;2.30;0.10;;;;;;;;;;10198576;28;22552;-75
2023/08/03 09:15:42;;;;;;;0.05;0.05;;;;;;;;;;10192463;28;21732;-75
2023/08/03 09:20:43;;;;;;;0.00;0.00;;;;;;;;;;10201888;28;20862;-74
2023/08/03 09:26:13;;;;;;;0.08;0.08;;;;;;;;;;10206643;28;20235;-77
2023/08/03 09:31:20;;;;;;;0.15;0.03;;;;;;;;;;10213373;28;22444;-75
2023/08/03 09:36:21;;;;;;;0.10;0.10;;;;;;;;;;10215812;28;20339;-75
2023/08/03 09:41:36;;;;;;;0.32;0.10;;;;;;;;;;10210735;28;20224;-75
2023/08/03 09:46:37;;;;;;;0.00;0.00;;;;;;;;;;10207655;28;20220;-75
2023/08/03 09:51:43;;;;;;;0.15;0.10;;;;;;;;;;10206166;28;20228;-78
2023/08/03 09:56:52;;;;;;;1.38;0.10;;;;;;;;;;10217048;28;20699;-73
2023/08/03 10:01:55;;;;;;;1.05;0.10;;;;;;;;;;10216697;28;20220;-76
2023/08/03 10:07:00;;;;;;;0.22;0.10;;;;;;;;;;10211704;28;21734;-77
2023/08/03 10:12:06;;;;;;;0.05;0.05;;;;;;;;;;10242337;28;20362;-74
2023/08/03 10:17:08;;;;;;;1.95;0.13;;;;;;;;;;10289678;28;20221;-76
2023/08/03 10:22:09;;;;;;;0.10;0.10;;;;;;;;;;10266503;28;20212;-73
2023/08/03 10:27:17;;;;;;;0.10;0.10;;;;;;;;;;10290122;28;20397;-78
2023/08/03 10:32:21;;;;;;;0.00;0.00;;;;;;;;;;10284296;28;20230;-77
2023/08/03 10:37:22;;;;;;;0.20;0.10;;;;;;;;;;10282647;28;20740;-73
2023/08/03 10:42:30;;;;;;;0.10;0.10;;;;;;;;;;10274920;28;20233;-74
2023/08/03 10:47:31;;;;;;;0.10;0.10;;;;;;;;;;10276832;28;20858;-73
2023/08/03 10:52:32;;;;;;;0.10;0.10;;;;;;;;;;10263044;28;20238;-75
2023/08/03 10:57:33;;;;;;;0.10;0.10;;;;;;;;;;10273528;28;20946;-72
2023/08/03 11:02:35;;;;;;;0.35;0.10;;;;;;;;;;10276044;28;20449;-76
2023/08/03 11:07:38;;;;;;;0.10;0.10;;;;;;;;;;10276423;28;20964;-77
2023/08/03 11:12:42;;;;;;;0.10;0.10;;;;;;;;;;10267207;28;20261;-75
2023/08/03 11:17:46;;;;;;;1.55;0.10;;;;;;;;;;10264108;28;20841;-75
2023/08/03 11:22:47;;;;;;;0.63;0.10;;;;;;;;;;10249701;28;20223;-72
2023/08/03 11:27:49;;;;;;;0.10;0.10;;;;;;;;;;10269708;28;20226;-76
2023/08/03 11:32:56;;;;;;;0.20;0.10;;;;;;;;;;10269003;28;20236;-75
2023/08/03 11:37:57;;;;;;;0.10;0.10;;;;;;;;;;10268784;28;20261;-74
2023/08/03 11:42:59;;;;;;;0.47;0.10;;;;;;;;;;10287853;28;20219;-74
2023/08/03 11:48:00;;;;;;;0.80;0.08;;;;;;;;;;10285075;28;20857;-75
2023/08/03 11:53:01;;;;;;;0.10;0.10;;;;;;;;;;10287090;28;20234;-71
2023/08/03 11:58:08;;;;;;;0.10;0.10;;;;;;;;;;10278740;28;20374;-76
2023/08/03 12:03:10;;;;;;;0.10;0.10;;;;;;;;;;10276376;28;20490;-74
2023/08/03 12:08:11;;;;;;;1.85;0.20;;;;;;;;;;10275877;28;20290;-73
2023/08/03 12:13:12;;;;;;;0.10;0.10;;;;;;;;;;10272096;28;20230;-74
2023/08/03 12:18:13;;;;;;;8.48;0.28;;;;;;;;;;10274213;28;20860;-74
2023/08/03 12:23:14;;;;;;;0.10;0.10;;;;;;;;;;10255502;28;20253;-74
2023/08/03 12:28:15;;;;;;;0.00;0.00;;;;;;;;;;10268604;28;20861;-73
2023/08/03 12:33:16;;;;;;;0.10;0.10;;;;;;;;;;10260425;28;20832;-72
2023/08/03 12:38:18;;;;;;;0.10;0.10;;;;;;;;;;10247886;28;20223;-75
2023/08/03 12:43:19;;;;;;;0.03;0.00;;;;;;;;;;10276259;28;20791;-75
2023/08/03 12:48:20;;;;;;;0.10;0.10;;;;;;;;;;10279266;28;20309;-73
2023/08/03 12:53:21;;;;;;;0.10;0.10;;;;;;;;;;10272560;28;20559;-72
2023/08/03 12:58:23;;;;;;;0.10;0.10;;;;;;;;;;10258174;28;20224;-73
2023/08/03 13:03:24;;;;;;;0.03;0.03;;;;;;;;;;10266842;28;20277;-74
2023/08/03 13:08:25;;;;;;;0.10;0.10;;;;;;;;;;10255711;28;20211;-72
2023/08/03 13:13:26;;;;;;;0.00;0.00;;;;;;;;;;10278630;28;20438;-76
2023/08/03 13:18:27;;;;;;;0.10;0.10;;;;;;;;;;10265759;28;20307;-75
2023/08/03 13:23:28;;;;;;;0.10;0.10;;;;;;;;;;10273947;28;20223;-73
2023/08/03 13:28:29;;;;;;;0.08;0.08;;;;;;;;;;10274385;28;20219;-74
2023/08/03 13:33:30;;;;;;;0.10;0.10;;;;;;;;;;10284219;28;20218;-77
2023/08/03 13:38:32;;;;;;;0.10;0.10;;;;;;;;;;10278005;28;20219;-74
2023/08/03 13:43:34;;;;;;;0.10;0.10;;;;;;;;;;10294667;28;21431;-75
2023/08/03 13:48:35;;;;;;;0.93;0.10;;;;;;;;;;10280281;28;21216;-74
2023/08/03 13:53:36;;;;;;;0.10;0.10;;;;;;;;;;10283606;28;21299;-73
2023/08/03 13:58:37;;;;;;;2.35;0.13;;;;;;;;;;10285521;28;20605;-74
2023/08/03 14:03:38;;;;;;;0.10;0.10;;;;;;;;;;10278415;28;21031;-74
2023/08/03 14:08:40;;;;;;;0.10;0.08;;;;;;;;;;10279255;28;21391;-74
2023/08/03 14:13:41;;;;;;;1.02;0.05;;;;;;;;;;10275410;28;20231;-73
2023/08/03 14:18:42;;;;;;;0.10;0.10;;;;;;;;;;10283232;28;21908;-74
2023/08/03 14:23:43;;;;;;;0.65;0.08;;;;;;;;;;10260858;28;20528;-74
2023/08/03 14:28:44;;;;;;;0.08;0.08;;;;;;;;;;10274154;28;20230;-72
2023/08/03 14:33:46;;;;;;;0.10;0.10;;;;;;;;;;10272001;28;20621;-76
2023/08/03 14:38:47;;;;;;;0.05;0.05;;;;;;;;;;10260742;28;20223;-73
2023/08/03 14:43:50;;;;;;;0.10;0.10;;;;;;;;;;10252062;28;20214;-75
2023/08/03 14:48:51;;;;;;;0.00;0.00;;;;;;;;;;10260060;28;20223;-75
2023/08/03 14:53:52;;;;;;;0.10;0.10;;;;;;;;;;10267371;28;20341;-76
2023/08/03 14:58:54;;;;;;;0.10;0.10;;;;;;;;;;10272003;28;20513;-76
2023/08/03 15:03:55;;;;;;;0.05;0.05;;;;;;;;;;10265055;28;22148;-76
2023/08/03 15:08:56;;;;;;;0.10;0.10;;;;;;;;;;10265080;28;20230;-76
2023/08/03 15:13:57;;;;;;;0.10;0.10;;;;;;;;;;10263816;28;20245;-76
2023/08/03 15:18:58;;;;;;;0.10;0.10;;;;;;;;;;10273813;28;20222;-75
2023/08/03 15:23:59;;;;;;;0.98;0.10;;;;;;;;;;10277394;28;20234;-78
2023/08/03 15:29:00;;;;;;;0.10;0.10;;;;;;;;;;10286985;28;20231;-76
2023/08/03 15:34:01;;;;;;;0.10;0.10;;;;;;;;;;10289505;28;20293;-73
2023/08/03 15:39:03;;;;;;;0.10;0.10;;;;;;;;;;10291587;28;20986;-79
2023/08/03 15:44:04;;;;;;;0.20;0.20;;;;;;;;;;10290263;28;22733;-75
2023/08/03 15:49:05;;;;;;;0.10;0.10;;;;;;;;;;10291023;28;20791;-73
2023/08/03 15:54:06;;;;;;;0.05;0.05;;;;;;;;;;10290216;28;20342;-76
2023/08/03 15:59:08;;;;;;;0.10;0.10;;;;;;;;;;10292957;28;20226;-75
2023/08/03 16:04:09;;;;;;;0.10;0.10;;;;;;;;;;10288133;28;20215;-72
2023/08/03 16:09:10;;;;;;;0.08;0.08;;;;;;;;;;10273814;28;20229;-77
2023/08/03 16:14:11;;;;;;;0.10;0.10;;;;;;;;;;10274364;28;20234;-75
2023/08/03 16:19:13;;;;;;;0.00;0.00;;;;;;;;;;10255527;28;20226;-76
2023/08/03 16:24:15;;;;;;;0.10;0.10;;;;;;;;;;10270444;28;22707;-77
2023/08/03 16:29:16;;;;;;;5.25;0.13;;;;;;;;;;10273241;28;20222;-75
2023/08/03 16:34:17;;;;;;;0.15;0.15;;;;;;;;;;10260916;28;20223;-77
2023/08/03 16:39:18;;;;;;;0.10;0.10;;;;;;;;;;10274305;28;20223;-75
2023/08/03 16:44:19;;;;;;;0.20;0.20;;;;;;;;;;10283120;28;20298;-75
2023/08/03 16:49:22;;;;;;;0.10;0.10;;;;;;;;;;10279222;28;20261;-73
2023/08/03 16:54:23;;;;;;;0.32;0.20;;;;;;;;;;10274361;28;20223;-72
2023/08/03 16:59:24;;;;;;;0.10;0.10;;;;;;;;;;10255255;28;20227;-74
2023/08/03 17:04:25;;;;;;;0.20;0.20;;;;;;;;;;10280312;28;20231;-74
2023/08/03 17:09:27;;;;;;;1.05;0.20;;;;;;;;;;10267903;28;20448;-73
2023/08/03 17:14:28;;;;;;;0.20;0.20;;;;;;;;;;10282538;28;20231;-75
2023/08/03 17:19:29;;;;;;;0.47;0.20;;;;;;;;;;10280527;28;20222;-77
2023/08/03 17:24:31;;;;;;;0.20;0.20;;;;;;;;;;10284518;28;20242;-74
2023/08/03 17:29:32;;;;;;;0.30;0.30;;;;;;;;;;10286589;28;20483;-75
2023/08/03 17:34:33;;;;;;;1.55;0.20;;;;;;;;;;10294936;28;20245;-75
2023/08/03 17:39:34;;;;;;;0.25;0.25;;;;;;;;;;10289624;28;20625;-77
2023/08/03 17:44:35;;;;;;;0.25;0.25;;;;;;;;;;10275940;28;20246;-74
2023/08/03 17:49:37;;;;;;;0.20;0.20;;;;;;;;;;10283620;28;20230;-73
2023/08/03 17:54:38;;;;;;;0.10;0.10;;;;;;;;;;10284046;28;20214;-73
2023/08/03 17:59:39;;;;;;;0.30;0.30;;;;;;;;;;10290325;28;20225;-76
2023/08/03 18:04:41;;;;;;;0.20;0.20;;;;;;;;;;10291142;28;20224;-73
2023/08/03 18:09:42;;;;;;;0.20;0.20;;;;;;;;;;10270297;28;20237;-70
2023/08/03 18:14:43;;;;;;;0.20;0.20;;;;;;;;;;10286268;28;20548;-74
2023/08/03 18:19:44;;;;;;;0.20;0.20;;;;;;;;;;10284618;28;20802;-74
2023/08/03 18:24:47;;;;;;;0.10;0.10;;;;;;;;;;10279581;28;20257;-74
2023/08/03 18:29:49;;;;;;;0.20;0.20;;;;;;;;;;10270866;28;21269;-74
2023/08/03 18:34:50;;;;;;;0.40;0.40;;;;;;;;;;10284220;28;20260;-74
2023/08/03 18:39:51;;;;;;;0.10;0.10;;;;;;;;;;10257777;28;20222;-74
2023/08/03 18:44:52;;;;;;;0.10;0.10;;;;;;;;;;10281986;28;20237;-75
2023/08/03 18:49:53;;;;;;;2.72;0.50;;;;;;;;;;10270479;28;20229;-74
2023/08/03 18:54:55;;;;;;;0.20;0.20;;;;;;;;;;10265430;28;20227;-74
2023/08/03 18:59:56;;;;;;;0.75;0.20;;;;;;;;;;10271654;28;20240;-75
2023/08/03 19:04:57;;;;;;;0.20;0.20;;;;;;;;;;10278005;28;20221;-74
2023/08/03 19:09:58;;;;;;;0.30;0.30;;;;;;;;;;10235222;28;20816;-73
2023/08/03 19:14:59;;;;;;;0.20;0.20;;;;;;;;;;10262717;28;20245;-77
2023/08/03 19:20:00;;;;;;;0.20;0.20;;;;;;;;;;10256106;28;20226;-74
2023/08/03 19:25:01;;;;;;;0.10;0.10;;;;;;;;;;10259584;28;20207;-73
2023/08/03 19:30:02;;;;;;;0.10;0.10;;;;;;;;;;10263829;28;20215;-72
2023/08/03 19:35:03;;;;;;;0.20;0.20;;;;;;;;;;10258917;28;20206;-72
2023/08/03 19:40:06;;;;;;;0.20;0.20;;;;;;;;;;10269526;28;23013;-74
2023/08/03 19:45:07;;;;;;;0.20;0.20;;;;;;;;;;10271610;28;20214;-74
2023/08/03 19:50:08;;;;;;;0.10;0.10;;;;;;;;;;10274531;28;20230;-76
2023/08/03 19:55:09;;;;;;;0.13;0.13;;;;;;;;;;10269952;28;20474;-74
2023/08/03 20:00:11;;;;;;;0.20;0.20;;;;;;;;;;10287320;28;20225;-77
2023/08/03 20:05:12;;;;;;;0.20;0.20;;;;;;;;;;10273845;28;20188;-73
2023/08/03 20:10:14;;;;;;;0.22;0.22;;;;;;;;;;10278538;28;20321;-74
2023/08/03 20:15:16;;;;;;;2.00;0.30;;;;;;;;;;10282085;28;22600;-74
2023/08/03 20:20:17;;;;;;;0.10;0.10;;;;;;;;;;10273606;28;20230;-74
2023/08/03 20:25:18;;;;;;;0.30;0.20;;;;;;;;;;10279763;28;22511;-75
2023/08/03 20:30:19;;;;;;;0.20;0.20;;;;;;;;;;10289024;28;20214;-72
2023/08/03 20:35:20;;;;;;;0.20;0.20;;;;;;;;;;10288738;28;20183;-73
2023/08/03 20:40:22;;;;;;;1.00;0.50;;;;;;;;;;10278868;28;20244;-72
2023/08/03 20:45:23;;;;;;;0.20;0.20;;;;;;;;;;10273195;28;20962;-74
2023/08/03 20:50:24;;;;;;;0.20;0.20;;;;;;;;;;10272264;28;23790;-72
2023/08/03 20:55:26;;;;;;;0.63;0.20;;;;;;;;;;10275044;28;20222;-72
2023/08/03 21:00:27;;;;;;;0.10;0.10;;;;;;;;;;10265594;28;20943;-73
2023/08/03 21:05:29;;;;;;;0.20;0.20;;;;;;;;;;10273857;28;20218;-72
2023/08/03 21:10:30;;;;;;;0.20;0.20;;;;;;;;;;10274718;28;20234;-76
2023/08/03 21:15:31;;;;;;;0.32;0.32;;;;;;;;;;10272754;28;20227;-73
2023/08/03 21:20:33;;;;;;;0.20;0.20;;;;;;;;;;10268022;28;20415;-74
2023/08/03 21:25:34;;;;;;;0.20;0.20;;;;;;;;;;10274635;28;20222;-73
2023/08/03 21:30:35;;;;;;;0.85;0.22;;;;;;;;;;10284765;28;21013;-75
2023/08/03 21:35:36;;;;;;;0.30;0.30;;;;;;;;;;10273509;28;20312;-71
2023/08/03 21:40:38;;;;;;;0.20;0.20;;;;;;;;;;10271535;28;20226;-74
2023/08/03 21:45:45;;;;;;;0.85;0.30;;;;;;;;;;10264799;28;20260;-76
2023/08/03 21:50:46;;;;;;;2.28;0.30;;;;;;;;;;10274177;28;20333;-75
2023/08/03 21:55:48;;;;;;;0.30;0.30;;;;;;;;;;10279483;28;20229;-75
2023/08/03 22:00:49;;;;;;;1.08;0.55;;;;;;;;;;10290886;28;20236;-72
2023/08/03 22:05:50;;;;;;;0.38;0.38;;;;;;;;;;10271791;28;20596;-73
2023/08/03 22:10:51;;;;;;;0.20;0.20;;;;;;;;;;10276800;28;20320;-76
2023/08/03 22:15:55;;;;;;;1.00;0.40;;;;;;;;;;10274579;28;20226;-74
2023/08/03 22:21:05;;;;;;;1.75;0.30;;;;;;;;;;10276178;28;20853;-75
2023/08/03 22:26:13;;;;;;;0.30;0.30;;;;;;;;;;10257258;28;20239;-73
2023/08/03 22:31:14;;;;;;;4.07;1.02;;;;;;;;;;10262650;28;20234;-73
2023/08/03 22:36:16;;;;;;;0.40;0.40;;;;;;;;;;10268717;28;20221;-74
2023/08/03 22:41:17;;;;;;;0.95;0.45;;;;;;;;;;10268963;28;20794;-75
2023/08/03 22:46:18;;;;;;;0.43;0.43;;;;;;;;;;10266355;28;20296;-74
2023/08/03 22:51:20;;;;;;;0.40;0.40;;;;;;;;;;10261836;28;20234;-73
2023/08/03 22:56:21;;;;;;;0.98;0.40;;;;;;;;;;10269337;28;20215;-75
2023/08/03 23:01:23;;;;;;;0.40;0.40;;;;;;;;;;10275798;28;20325;-74
2023/08/03 23:06:25;;;;;;;0.50;0.50;;;;;;;;;;10271757;28;20215;-73
2023/08/03 23:11:26;;;;;;;0.40;0.40;;;;;;;;;;10261963;28;22328;-74
2023/08/03 23:16:27;;;;;;;6.50;0.57;;;;;;;;;;10278345;28;20873;-75
2023/08/03 23:21:29;;;;;;;0.47;0.40;;;;;;;;;;10254108;28;21450;-72
2023/08/03 23:26:30;;;;;;;0.50;0.50;;;;;;;;;;10268290;28;20219;-74
2023/08/03 23:31:31;;;;;;;0.63;0.43;;;;;;;;;;10280590;28;20230;-72
2023/08/03 23:36:32;;;;;;;1.30;0.60;;;;;;;;;;10287369;28;20253;-74
2023/08/03 23:41:33;;;;;;;0.47;0.47;;;;;;;;;;10287297;28;20291;-73
2023/08/03 23:46:34;;;;;;;0.40;0.40;;;;;;;;;;10278481;28;20226;-74
2023/08/03 23:51:35;;;;;;;0.50;0.50;;;;;;;;;;10285615;28;20276;-73
2023/08/03 23:56:36;;;;;;;0.90;0.43;;;;;;;;;;10283423;28;20856;-72
